createdAt,value
2023-03-21T00:01:36.269Z,19.73
2023-03-21T00:07:44.666Z,20.45
2023-03-21T00:10:43.923Z,19.77
2023-03-21T00:13:27.652Z,19.10
2023-03-21T00:16:22.911Z,19.10
2023-03-21T00:19:13.059Z,19.23
2023-03-21T00:22:06.567Z,19.60
2023-03-21T00:24:44.726Z,19.98
2023-03-21T00:30:29.303Z,19.17
2023-03-21T00:33:22.355Z,19.45
2023-03-21T00:36:11.480Z,20.50
2023-03-21T00:39:01.464Z,19.27
2023-03-21T00:41:43.352Z,18.42
2023-03-21T00:44:25.614Z,20.30
2023-03-21T00:47:09.089Z,19.02
2023-03-21T00:49:56.152Z,20.10
2023-03-21T00:52:40.843Z,19.50
2023-03-21T00:55:24.777Z,20.00
2023-03-21T00:58:06.992Z,20.23
2023-03-21T01:00:50.472Z,19.48
2023-03-21T01:03:51.960Z,20.38
2023-03-21T01:06:28.631Z,18.73
2023-03-21T01:09:14.644Z,19.58
2023-03-21T01:12:14.356Z,19.95
2023-03-21T01:14:59.186Z,21.05
2023-03-21T01:17:46.924Z,20.70
2023-03-21T01:20:33.224Z,21.05
2023-03-21T01:23:18.799Z,20.83
2023-03-21T01:26:11.007Z,21.33
2023-03-21T01:28:51.565Z,20.70
2023-03-21T01:31:32.789Z,19.95
2023-03-21T01:34:26.138Z,20.13
2023-03-21T01:37:01.519Z,21.80
2023-03-21T01:39:41.140Z,20.20
2023-03-21T01:42:17.532Z,21.38
2023-03-21T01:45:01.053Z,20.25
2023-03-21T01:47:49.642Z,20.00
2023-03-21T01:50:50.886Z,20.75
2023-03-21T01:53:36.824Z,20.80
2023-03-21T01:56:20.653Z,20.58
2023-03-21T01:59:05.513Z,20.83
2023-03-21T02:01:59.296Z,19.20
2023-03-21T02:04:44.061Z,21.75
2023-03-21T02:07:31.036Z,21.35
2023-03-21T02:10:08.662Z,22.35
2023-03-21T02:12:52.741Z,23.02
2023-03-21T02:15:58.326Z,22.65
2023-03-21T02:18:52.180Z,22.88
2023-03-21T02:22:04.158Z,21.60
2023-03-21T02:25:10.769Z,21.85
2023-03-21T02:28:00.823Z,22.60
2023-03-21T02:31:04.776Z,21.30
2023-03-21T02:34:32.542Z,22.27
2023-03-21T02:37:37.627Z,22.75
2023-03-21T02:40:32.177Z,21.98
2023-03-21T02:43:22.624Z,21.70
2023-03-21T02:46:05.975Z,20.63
2023-03-21T02:48:55.432Z,21.83
2023-03-21T02:54:45.624Z,22.45
2023-03-21T02:57:26.990Z,24.23
2023-03-21T03:00:17.100Z,22.92
2023-03-21T03:03:34.405Z,23.10
2023-03-21T03:06:13.030Z,22.13
2023-03-21T03:09:06.626Z,22.05
2023-03-21T03:11:52.095Z,24.33
2023-03-21T03:15:00.275Z,22.45
2023-03-21T03:18:04.621Z,23.52
2023-03-21T03:20:53.736Z,22.92
2023-03-21T03:23:44.751Z,25.63
2023-03-21T03:26:31.714Z,23.00
2023-03-21T03:29:23.859Z,23.60
2023-03-21T03:32:07.158Z,24.00
2023-03-21T03:34:44.386Z,22.95
2023-03-21T03:37:33.762Z,24.15
2023-03-21T03:40:13.719Z,23.60
2023-03-21T03:43:14.518Z,24.50
2023-03-21T03:46:03.274Z,24.20
2023-03-21T03:48:52.193Z,23.30
2023-03-21T03:51:54.088Z,24.40
2023-03-21T03:54:36.908Z,24.17
2023-03-21T03:57:19.588Z,24.98
2023-03-21T04:00:05.570Z,24.23
2023-03-21T04:02:56.227Z,27.05
2023-03-21T04:05:31.043Z,26.02
2023-03-21T04:08:11.762Z,26.80
2023-03-21T04:11:01.235Z,25.73
2023-03-21T04:13:43.871Z,26.42
2023-03-21T04:16:28.899Z,26.52
2023-03-21T04:19:04.820Z,27.00
2023-03-21T04:21:44.880Z,27.38
2023-03-21T04:24:45.306Z,26.58
2023-03-21T04:27:29.838Z,26.00
2023-03-21T04:31:01.215Z,25.70
2023-03-21T04:33:59.703Z,27.58
2023-03-21T04:36:54.870Z,28.08
2023-03-21T04:39:51.088Z,26.05
2023-03-21T04:42:27.834Z,27.00
2023-03-21T04:45:11.482Z,27.10
2023-03-21T04:47:57.696Z,26.00
2023-03-21T04:50:39.797Z,26.90
2023-03-21T04:53:23.203Z,26.95
2023-03-21T04:59:20.252Z,26.20
2023-03-21T05:01:54.022Z,25.67
2023-03-21T05:04:46.290Z,24.65
2023-03-21T05:07:19.626Z,25.90
2023-03-21T05:09:57.856Z,26.35
2023-03-21T05:12:32.697Z,25.65
2023-03-21T05:15:06.937Z,25.88
2023-03-21T05:17:43.406Z,26.27
2023-03-21T05:20:20.983Z,26.63
2023-03-21T05:22:57.346Z,25.40
2023-03-21T05:25:50.089Z,26.60
2023-03-21T05:28:42.817Z,28.52
2023-03-21T05:31:26.524Z,27.92
2023-03-21T05:34:12.775Z,27.42
2023-03-21T05:37:02.175Z,26.60
2023-03-21T05:39:53.607Z,26.40
2023-03-21T05:42:48.681Z,27.73
2023-03-21T05:45:30.920Z,26.55
2023-03-21T05:48:08.721Z,26.52
2023-03-21T05:51:01.056Z,28.50
2023-03-21T05:53:44.367Z,26.83
2023-03-21T05:56:28.954Z,27.27
2023-03-21T06:02:07.323Z,26.25
2023-03-21T06:05:05.000Z,26.52
2023-03-21T06:07:38.931Z,27.73
2023-03-21T06:10:22.482Z,29.02
2023-03-21T06:13:20.248Z,27.58
2023-03-21T06:16:02.062Z,27.98
2023-03-21T06:18:39.569Z,27.73
2023-03-21T06:21:39.158Z,26.90
2023-03-21T06:24:10.880Z,26.40
2023-03-21T06:26:48.667Z,27.90
2023-03-21T06:29:42.980Z,27.67
2023-03-21T06:32:23.872Z,26.35
2023-03-21T06:35:12.929Z,26.30
2023-03-21T06:38:04.137Z,25.15
2023-03-21T06:40:38.941Z,24.70
2023-03-21T06:43:19.409Z,27.00
2023-03-21T06:46:07.434Z,26.55
2023-03-21T06:48:45.340Z,26.98
2023-03-21T06:51:23.467Z,25.52
2023-03-21T06:54:39.121Z,26.40
2023-03-21T06:57:25.679Z,25.90
2023-03-21T07:00:11.834Z,26.92
2023-03-21T07:02:51.465Z,26.27
2023-03-21T07:05:56.568Z,25.83
2023-03-21T07:08:32.314Z,26.20
2023-03-21T07:11:19.992Z,26.23
2023-03-21T07:14:00.331Z,27.15
2023-03-21T07:16:33.545Z,27.30
2023-03-21T07:19:25.442Z,25.52
2023-03-21T07:25:08.479Z,28.10
2023-03-21T07:27:52.178Z,27.27
2023-03-21T07:33:28.926Z,27.02
2023-03-21T07:36:28.852Z,26.77
2023-03-21T07:39:21.027Z,30.23
2023-03-21T07:42:01.328Z,27.90
2023-03-21T07:44:49.832Z,28.38
2023-03-21T07:47:29.826Z,29.42
2023-03-21T07:50:01.437Z,30.92
2023-03-21T07:52:36.042Z,28.00
2023-03-21T07:55:27.848Z,28.33
2023-03-21T07:58:04.739Z,27.02
2023-03-21T08:00:40.348Z,29.52
2023-03-21T08:03:19.816Z,29.58
2023-03-21T08:06:19.870Z,28.50
2023-03-21T08:09:09.877Z,29.25
2023-03-21T08:12:05.963Z,28.55
2023-03-21T08:14:47.691Z,29.05
2023-03-21T08:17:25.032Z,30.25
2023-03-21T08:20:26.292Z,29.33
2023-03-21T08:23:08.620Z,29.83
2023-03-21T08:25:54.486Z,30.08
2023-03-21T08:28:36.576Z,29.17
2023-03-21T08:31:16.945Z,30.27
2023-03-21T08:33:53.787Z,29.00
2023-03-21T08:36:36.144Z,31.50
2023-03-21T08:39:14.427Z,32.45
2023-03-21T08:41:58.284Z,29.65
2023-03-21T08:44:52.904Z,31.55
2023-03-21T08:47:35.572Z,31.40
2023-03-21T08:50:16.162Z,31.95
2023-03-21T08:53:06.017Z,30.70
2023-03-21T08:55:52.846Z,32.47
2023-03-21T08:58:35.653Z,28.35
2023-03-21T09:01:11.638Z,32.17
2023-03-21T09:03:47.672Z,29.10
2023-03-21T09:06:34.210Z,28.52
2023-03-21T09:09:28.185Z,28.15
2023-03-21T09:12:14.159Z,27.77
2023-03-21T09:14:52.055Z,28.60
2023-03-21T09:17:29.360Z,28.85
2023-03-21T09:20:22.405Z,26.52
2023-03-21T09:23:02.888Z,28.10
2023-03-21T09:25:39.531Z,26.40
2023-03-21T09:28:18.243Z,26.98
2023-03-21T09:31:15.871Z,27.10
2023-03-21T09:34:02.206Z,27.77
2023-03-21T09:36:42.422Z,29.33
2023-03-21T09:39:21.124Z,29.02
2023-03-21T09:42:32.943Z,29.63
2023-03-21T09:45:25.277Z,32.65
2023-03-21T09:47:57.355Z,30.30
2023-03-21T09:51:03.846Z,32.95
2023-03-21T09:53:42.121Z,32.33
2023-03-21T09:56:36.860Z,31.98
2023-03-21T09:59:28.533Z,32.20
2023-03-21T10:02:03.884Z,32.15
2023-03-21T10:04:40.763Z,31.90
2023-03-21T10:07:34.448Z,31.80
2023-03-21T10:10:18.868Z,31.88
2023-03-21T10:13:24.958Z,32.25
2023-03-21T10:16:16.757Z,31.33
2023-03-21T10:19:19.208Z,30.60
2023-03-21T10:22:04.405Z,30.60
2023-03-21T10:24:45.896Z,30.67
2023-03-21T10:27:44.202Z,28.88
2023-03-21T10:30:29.652Z,28.48
2023-03-21T10:33:19.660Z,27.67
2023-03-21T10:36:14.590Z,27.80
2023-03-21T10:38:56.659Z,25.92
2023-03-21T10:41:38.839Z,24.95
2023-03-21T10:44:29.802Z,24.40
2023-03-21T10:47:11.794Z,23.60
2023-03-21T10:53:29.509Z,23.25
2023-03-21T10:56:20.664Z,21.30
2023-03-21T10:58:55.963Z,21.58
2023-03-21T11:01:33.848Z,18.27
2023-03-21T11:04:11.982Z,18.30
2023-03-21T11:07:04.597Z,18.33
2023-03-21T11:09:53.805Z,18.33
2023-03-21T11:12:34.420Z,19.25
2023-03-21T11:15:30.319Z,19.73
2023-03-21T11:18:20.824Z,18.10
2023-03-21T11:21:00.848Z,18.15
2023-03-21T11:23:35.592Z,17.63
2023-03-21T11:26:27.727Z,16.48
2023-03-21T11:29:15.595Z,16.45
2023-03-21T11:31:55.558Z,17.27
2023-03-21T11:34:41.945Z,15.23
2023-03-21T11:37:28.656Z,15.27
2023-03-21T11:40:15.060Z,16.20
2023-03-21T11:42:56.663Z,15.63
2023-03-21T11:45:29.967Z,17.15
2023-03-21T11:48:12.031Z,16.55
2023-03-21T11:50:47.873Z,16.30
2023-03-21T11:53:44.128Z,16.35
2023-03-21T11:56:41.492Z,16.48
2023-03-21T11:59:35.960Z,16.55
2023-03-21T12:02:46.219Z,16.13
2023-03-21T12:05:25.400Z,15.63
2023-03-21T12:08:13.260Z,17.30
2023-03-21T12:10:49.380Z,16.30
2023-03-21T12:13:37.446Z,15.48
2023-03-21T12:16:29.151Z,16.38
2023-03-21T12:19:44.809Z,15.02
2023-03-21T12:22:33.432Z,17.23
2023-03-21T12:25:12.554Z,16.13
2023-03-21T12:27:51.312Z,16.20
2023-03-21T12:30:36.691Z,15.65
2023-03-21T12:33:48.638Z,15.80
2023-03-21T12:36:39.005Z,14.80
2023-03-21T12:43:05.873Z,14.45
2023-03-21T12:45:46.226Z,15.70
2023-03-21T12:48:19.173Z,14.75
2023-03-21T12:50:49.885Z,15.02
2023-03-21T12:53:37.796Z,16.55
2023-03-21T12:56:10.350Z,18.13
2023-03-21T12:58:44.285Z,15.27
2023-03-21T13:01:12.980Z,16.83
2023-03-21T13:03:43.781Z,14.50
2023-03-21T13:06:15.424Z,14.98
2023-03-21T13:08:46.281Z,16.13
2023-03-21T13:11:17.505Z,14.43
2023-03-21T13:13:48.240Z,14.93
2023-03-21T13:16:19.664Z,13.43
2023-03-21T13:18:58.998Z,12.98
2023-03-21T13:21:39.061Z,13.45
2023-03-21T13:24:19.498Z,13.63
2023-03-21T13:26:51.357Z,14.27
2023-03-21T13:29:24.822Z,13.60
2023-03-21T13:31:57.207Z,13.55
2023-03-21T13:34:26.650Z,13.40
2023-03-21T13:36:58.689Z,12.63
2023-03-21T13:39:29.162Z,13.45
2023-03-21T13:42:05.018Z,13.52
2023-03-21T13:44:37.257Z,13.93
2023-03-21T13:47:06.762Z,13.07
2023-03-21T13:49:36.226Z,13.60
2023-03-21T13:52:26.986Z,13.40
2023-03-21T13:54:58.229Z,14.77
2023-03-21T13:57:40.234Z,13.02
2023-03-21T14:00:21.261Z,11.93
2023-03-21T14:02:57.187Z,13.27
2023-03-21T14:05:26.371Z,12.57
2023-03-21T14:07:59.342Z,14.45
2023-03-21T14:10:35.010Z,12.55
2023-03-21T14:13:06.584Z,12.68
2023-03-21T14:15:46.411Z,12.50
2023-03-21T14:18:34.960Z,13.23
2023-03-21T14:21:23.378Z,12.68
2023-03-21T14:24:00.440Z,13.65
2023-03-21T14:26:31.061Z,13.18
2023-03-21T14:29:00.498Z,13.27
2023-03-21T14:31:28.352Z,12.98
2023-03-21T14:33:58.755Z,13.07
2023-03-21T14:36:29.155Z,13.32
2023-03-21T14:39:02.720Z,13.60
2023-03-21T14:41:32.273Z,12.60
2023-03-21T14:44:16.686Z,15.30
2023-03-21T14:46:45.081Z,13.40
2023-03-21T14:49:14.569Z,14.77
2023-03-21T14:51:45.501Z,13.15
2023-03-21T14:54:17.518Z,12.75
2023-03-21T14:56:48.370Z,13.27
2023-03-21T14:59:20.494Z,14.02
2023-03-21T15:01:50.301Z,13.93
2023-03-21T15:04:18.466Z,14.40
2023-03-21T15:06:51.587Z,16.55
2023-03-21T15:09:25.258Z,13.70
2023-03-21T15:11:53.398Z,14.40
2023-03-21T15:14:27.256Z,14.25
2023-03-21T15:16:55.539Z,14.02
2023-03-21T15:19:28.562Z,14.88
2023-03-21T15:22:00.913Z,14.05
2023-03-21T15:24:30.592Z,12.82
2023-03-21T15:27:01.974Z,13.73
2023-03-21T15:29:31.722Z,13.60
2023-03-21T15:32:00.398Z,14.65
2023-03-21T15:34:29.765Z,16.70
2023-03-21T15:36:59.589Z,14.57
2023-03-21T15:39:28.872Z,13.25
2023-03-21T15:42:01.868Z,14.68
2023-03-21T15:44:31.017Z,15.55
2023-03-21T15:46:58.929Z,14.18
2023-03-21T15:49:28.913Z,14.88
2023-03-21T15:52:04.220Z,14.75
2023-03-21T15:54:34.523Z,15.40
2023-03-21T15:57:09.181Z,15.15
2023-03-21T15:59:42.162Z,16.10
2023-03-21T16:02:18.424Z,15.10
2023-03-21T16:04:57.220Z,16.98
2023-03-21T16:07:26.379Z,16.67
2023-03-21T16:09:59.949Z,15.40
2023-03-21T16:12:52.152Z,16.52
2023-03-21T16:15:42.121Z,15.55
2023-03-21T16:18:32.873Z,14.85
2023-03-21T16:21:22.372Z,14.68
2023-03-21T16:24:05.950Z,16.08
2023-03-21T16:26:56.958Z,15.52
2023-03-21T16:29:34.541Z,14.60
2023-03-21T16:32:13.124Z,15.82
2023-03-21T16:34:49.169Z,14.23
2023-03-21T16:37:21.778Z,23.88
2023-03-21T16:39:57.368Z,23.73
2023-03-21T16:42:38.837Z,26.10
2023-03-21T16:45:17.189Z,17.42
2023-03-21T16:47:56.538Z,17.67
2023-03-21T16:50:31.213Z,21.77
2023-03-21T16:53:06.784Z,19.15
2023-03-21T16:55:49.387Z,18.55
2023-03-21T16:58:32.807Z,16.42
2023-03-21T17:01:28.598Z,16.05
2023-03-21T17:04:19.518Z,16.83
2023-03-21T17:09:54.596Z,16.38
2023-03-21T17:12:48.468Z,15.45
2023-03-21T17:15:29.939Z,15.25
2023-03-21T17:18:28.522Z,15.93
2023-03-21T17:21:47.474Z,13.70
2023-03-21T17:24:52.810Z,13.82
2023-03-21T17:27:36.050Z,14.38
2023-03-21T17:30:41.279Z,13.98
2023-03-21T17:33:37.585Z,14.80
2023-03-21T17:36:43.475Z,13.85
2023-03-21T17:39:42.647Z,14.38
2023-03-21T17:43:04.669Z,13.90
2023-03-21T17:46:29.324Z,14.27
2023-03-21T17:49:13.972Z,13.35
2023-03-21T17:52:16.853Z,13.57
2023-03-21T17:55:21.520Z,14.07
2023-03-21T17:58:14.257Z,12.73
2023-03-21T18:01:23.095Z,13.55
2023-03-21T18:04:37.849Z,15.52
2023-03-21T18:07:35.002Z,14.55
2023-03-21T18:10:30.450Z,14.88
2023-03-21T18:13:13.887Z,16.15
2023-03-21T18:16:03.059Z,16.58
2023-03-21T18:18:48.837Z,16.88
2023-03-21T18:21:48.729Z,15.75
2023-03-21T18:24:29.901Z,17.58
2023-03-21T18:27:32.915Z,17.08
2023-03-21T18:30:56.427Z,17.40
2023-03-21T18:33:43.392Z,17.65
2023-03-21T18:36:42.785Z,17.77
2023-03-21T18:39:17.633Z,18.17
2023-03-21T18:41:57.113Z,18.80
2023-03-21T18:44:48.285Z,18.27
2023-03-21T18:47:39.572Z,17.50
2023-03-21T18:50:19.214Z,18.63
2023-03-21T18:53:07.952Z,18.73
2023-03-21T18:55:58.164Z,17.80
2023-03-21T18:58:39.949Z,19.25
2023-03-21T19:01:30.229Z,19.42
2023-03-21T19:04:20.751Z,20.13
2023-03-21T19:07:05.690Z,18.70
2023-03-21T19:10:15.416Z,19.00
2023-03-21T19:12:52.805Z,19.05
2023-03-21T19:15:29.886Z,20.85
2023-03-21T19:18:37.827Z,25.27
2023-03-21T19:21:03.525Z,22.45
2023-03-21T19:24:20.717Z,20.08
2023-03-21T19:26:45.449Z,18.92
2023-03-21T19:29:29.427Z,20.45
2023-03-21T19:32:11.836Z,21.08
2023-03-21T19:35:01.648Z,19.23
2023-03-21T19:38:00.662Z,19.77
2023-03-21T19:41:04.700Z,20.83
2023-03-21T19:43:54.736Z,20.30
2023-03-21T19:46:32.044Z,19.10
2023-03-21T19:49:10.646Z,20.52
2023-03-21T19:51:47.264Z,20.15
2023-03-21T19:54:30.838Z,19.13
2023-03-21T19:57:35.426Z,19.67
2023-03-21T20:00:46.198Z,18.48
2023-03-21T20:04:00.864Z,19.25
2023-03-21T20:06:34.928Z,19.77
2023-03-21T20:09:47.198Z,21.33
2023-03-21T20:11:53.151Z,20.42
2023-03-21T20:14:21.202Z,20.25
2023-03-21T20:16:48.925Z,18.88
2023-03-21T20:19:17.039Z,21.02
2023-03-21T20:21:52.174Z,20.35
2023-03-21T20:24:23.757Z,20.50
2023-03-21T20:26:53.622Z,23.35
2023-03-21T20:32:11.899Z,19.25
2023-03-21T20:34:40.341Z,19.35
2023-03-21T20:37:08.104Z,19.75
2023-03-21T20:39:37.441Z,17.95
2023-03-21T20:42:05.769Z,24.48
2023-03-21T20:44:55.966Z,18.55
2023-03-21T20:47:22.165Z,19.30
2023-03-21T20:49:50.885Z,18.20
2023-03-21T20:55:09.181Z,22.30
2023-03-21T20:57:38.774Z,18.45
2023-03-21T21:00:13.657Z,18.48
2023-03-21T21:02:43.051Z,16.98
2023-03-21T21:05:25.283Z,18.30
2023-03-21T21:07:56.387Z,17.88
2023-03-21T21:10:26.193Z,18.30
2023-03-21T21:12:53.962Z,17.48
2023-03-21T21:15:22.163Z,16.90
2023-03-21T21:18:05.567Z,18.08
2023-03-21T21:20:34.044Z,16.20
2023-03-21T21:23:01.758Z,17.67
2023-03-21T21:25:33.290Z,16.27
2023-03-21T21:28:02.283Z,16.13
2023-03-21T21:30:30.313Z,15.85
2023-03-21T21:32:59.515Z,20.77
2023-03-21T21:35:27.677Z,18.38
2023-03-21T21:37:55.353Z,16.75
2023-03-21T21:40:23.520Z,17.70
2023-03-21T21:42:52.616Z,15.48
2023-03-21T21:45:20.510Z,15.73
2023-03-21T21:47:48.296Z,16.83
2023-03-21T21:50:16.250Z,15.70
2023-03-21T21:52:52.409Z,14.43
2023-03-21T21:55:20.324Z,15.13
2023-03-21T21:57:50.196Z,16.52
2023-03-21T22:00:21.274Z,16.35
2023-03-21T22:02:49.008Z,15.77
2023-03-21T22:05:18.833Z,15.90
2023-03-21T22:07:47.447Z,16.35
2023-03-21T22:10:15.831Z,16.05
2023-03-21T22:12:43.614Z,14.68
2023-03-21T22:15:12.800Z,14.25
2023-03-21T22:17:42.221Z,15.48
2023-03-21T22:20:12.573Z,15.68
2023-03-21T22:22:40.332Z,15.40
2023-03-21T22:25:10.078Z,16.02
2023-03-21T22:27:38.111Z,14.93
2023-03-21T22:30:08.090Z,16.08
2023-03-21T22:32:37.643Z,15.18
2023-03-21T22:35:08.889Z,15.27
2023-03-21T22:37:38.476Z,15.02
2023-03-21T22:40:09.628Z,14.43
2023-03-21T22:42:39.572Z,16.38
2023-03-21T22:45:09.411Z,16.27
2023-03-21T22:47:38.461Z,15.82
2023-03-21T22:50:08.576Z,15.32
2023-03-21T22:52:36.524Z,15.60
2023-03-21T22:55:04.727Z,14.88
2023-03-21T22:57:32.532Z,14.68
2023-03-21T23:00:00.204Z,15.02
2023-03-21T23:02:28.523Z,15.18
2023-03-21T23:04:56.297Z,15.50
2023-03-21T23:07:25.669Z,15.45
2023-03-21T23:09:53.764Z,14.82
2023-03-21T23:12:21.479Z,15.50
2023-03-21T23:14:49.132Z,15.52
2023-03-21T23:17:17.000Z,15.57
2023-03-21T23:19:50.924Z,14.95
2023-03-21T23:22:36.379Z,14.88
2023-03-21T23:25:04.688Z,14.57
2023-03-21T23:27:35.111Z,14.32
2023-03-21T23:30:03.659Z,14.40
2023-03-21T23:32:32.918Z,14.70
2023-03-21T23:35:01.057Z,15.18
2023-03-21T23:37:30.009Z,14.35
2023-03-21T23:39:59.099Z,15.88
2023-03-21T23:42:29.635Z,14.88
2023-03-21T23:44:57.275Z,14.95
2023-03-21T23:47:24.963Z,15.70
2023-03-21T23:49:52.793Z,15.43
2023-03-21T23:52:20.531Z,14.43
2023-03-21T23:54:48.971Z,14.63
2023-03-21T23:57:18.279Z,15.15
2023-03-21T23:59:47.049Z,14.80
